Time;durP1;ratioP1;P1;durP2;ratioP2;P2;SDS_P1;SDS_P2;PMS_P1;PMS_P2;Temp;Humidity;BMP_temperature;BMP_pressure;BME280_temperature;BME280_humidity;BME280_pressure;Samples;Min_cycle;Max_cycle;Signal;HPM_P1;HPM_P2
2024/03/17 00:01:31;;;;;;;;;;;22.80;52.30;;;;;;5081095;28;20260;-63
2024/03/17 00:03:57;;;;;;;;;;;22.80;52.30;;;;;;5077208;28;20360;-63
2024/03/17 00:06:22;;;;;;;;;;;22.80;52.30;;;;;;5080007;28;19939;-63
2024/03/17 00:08:48;;;;;;;;;;;22.80;52.30;;;;;;5078884;28;20003;-63
2024/03/17 00:11:13;;;;;;;;;;;22.80;52.30;;;;;;5076200;28;19931;-63
2024/03/17 00:13:39;;;;;;;;;;;22.80;52.30;;;;;;5078208;28;19915;-63
2024/03/17 00:16:04;;;;;;;;;;;22.70;52.20;;;;;;5080262;28;19915;-63
2024/03/17 00:18:30;;;;;;;;;;;22.70;52.20;;;;;;5078164;28;20415;-62
2024/03/17 00:20:55;;;;;;;;;;;22.70;52.20;;;;;;5079087;28;19912;-63
2024/03/17 00:23:22;;;;;;;;;;;22.70;52.20;;;;;;5079653;28;19951;-63
2024/03/17 00:25:47;;;;;;;;;;;22.70;52.20;;;;;;5075115;28;19904;-63
2024/03/17 00:28:13;;;;;;;;;;;22.70;52.20;;;;;;5077613;28;19915;-63
2024/03/17 00:30:38;;;;;;;;;;;22.70;52.30;;;;;;5073001;28;19905;-63
2024/03/17 00:33:04;;;;;;;;;;;22.70;52.20;;;;;;5083336;28;19950;-63
2024/03/17 00:35:30;;;;;;;;;;;22.70;52.30;;;;;;5082026;28;19915;-63
2024/03/17 00:37:56;;;;;;;;;;;22.60;52.20;;;;;;5096382;28;20470;-62
2024/03/17 00:40:21;;;;;;;;;;;22.60;52.20;;;;;;5079621;28;19958;-63
2024/03/17 00:42:47;;;;;;;;;;;22.70;52.20;;;;;;5079775;28;19911;-64
2024/03/17 00:45:12;;;;;;;;;;;22.60;52.20;;;;;;5082713;28;19915;-62
2024/03/17 00:47:39;;;;;;;;;;;22.60;52.20;;;;;;5083974;28;19904;-63
2024/03/17 00:50:06;;;;;;;;;;;22.60;52.20;;;;;;5083082;28;19991;-63
2024/03/17 00:52:32;;;;;;;;;;;22.60;52.20;;;;;;5081554;28;20417;-63
2024/03/17 00:54:57;;;;;;;;;;;22.60;52.20;;;;;;5080189;28;19908;-63
2024/03/17 00:57:23;;;;;;;;;;;22.60;52.20;;;;;;5080813;28;20284;-63
2024/03/17 00:59:49;;;;;;;;;;;22.60;52.20;;;;;;5081985;28;19911;-64
2024/03/17 01:02:18;;;;;;;;;;;22.60;52.20;;;;;;5081661;28;19916;-63
2024/03/17 01:04:43;;;;;;;;;;;22.50;52.10;;;;;;5063291;28;19911;-64
2024/03/17 01:07:09;;;;;;;;;;;22.50;52.10;;;;;;5082074;28;19908;-63
2024/03/17 01:09:35;;;;;;;;;;;22.50;52.20;;;;;;5081468;28;20012;-63
2024/03/17 01:12:00;;;;;;;;;;;22.50;52.20;;;;;;5078315;28;19916;-63
2024/03/17 01:14:27;;;;;;;;;;;22.50;52.70;;;;;;5080890;28;19916;-64
2024/03/17 01:16:53;;;;;;;;;;;22.50;52.20;;;;;;5081544;28;19910;-64
2024/03/17 01:19:18;;;;;;;;;;;22.40;52.10;;;;;;5081090;28;20003;-63
2024/03/17 01:21:43;;;;;;;;;;;22.40;52.10;;;;;;5081987;28;19943;-63
2024/03/17 01:24:09;;;;;;;;;;;22.40;52.20;;;;;;5081354;28;20356;-64
2024/03/17 01:26:35;;;;;;;;;;;22.40;52.20;;;;;;5078059;28;19908;-62
2024/03/17 01:29:01;;;;;;;;;;;22.40;52.20;;;;;;5081443;28;20308;-62
2024/03/17 01:31:27;;;;;;;;;;;22.40;52.20;;;;;;5079744;28;20376;-62
2024/03/17 01:33:52;;;;;;;;;;;22.40;52.20;;;;;;5062211;28;19911;-62
2024/03/17 01:36:18;;;;;;;;;;;22.40;52.20;;;;;;5078830;28;19904;-65
2024/03/17 01:38:43;;;;;;;;;;;22.40;52.20;;;;;;5079772;28;19990;-65
2024/03/17 01:41:09;;;;;;;;;;;22.40;52.20;;;;;;5078584;28;20357;-64
2024/03/17 01:43:35;;;;;;;;;;;22.40;52.20;;;;;;5096542;28;20436;-65
2024/03/17 01:46:02;;;;;;;;;;;22.40;52.20;;;;;;5062144;28;19908;-65
2024/03/17 01:48:27;;;;;;;;;;;22.30;52.20;;;;;;5080328;28;20381;-65
2024/03/17 01:50:55;;;;;;;;;;;22.30;52.10;;;;;;5080451;28;19908;-65
2024/03/17 01:53:21;;;;;;;;;;;22.30;52.20;;;;;;5082964;28;20355;-65
2024/03/17 01:55:47;;;;;;;;;;;22.30;52.20;;;;;;5079927;28;20352;-62
2024/03/17 01:58:13;;;;;;;;;;;22.30;52.20;;;;;;5076137;28;19995;-63
2024/03/17 02:00:39;;;;;;;;;;;22.30;52.20;;;;;;5079366;28;19911;-63
2024/03/17 02:03:05;;;;;;;;;;;22.30;52.20;;;;;;5080489;28;19952;-63
2024/03/17 02:05:31;;;;;;;;;;;22.30;52.20;;;;;;5078377;28;19961;-62
2024/03/17 02:07:57;;;;;;;;;;;22.30;52.20;;;;;;5079647;28;19998;-63
2024/03/17 02:10:22;;;;;;;;;;;22.30;52.20;;;;;;5079952;28;19922;-64
2024/03/17 02:12:48;;;;;;;;;;;22.20;52.20;;;;;;5077696;28;20371;-63
2024/03/17 02:15:14;;;;;;;;;;;22.20;52.20;;;;;;5080115;28;19908;-63
2024/03/17 02:17:39;;;;;;;;;;;22.30;52.20;;;;;;5079728;28;19914;-63
2024/03/17 02:20:07;;;;;;;;;;;22.20;52.20;;;;;;5079185;28;19920;-62
2024/03/17 02:22:36;;;;;;;;;;;22.20;52.20;;;;;;5081163;28;19921;-63
2024/03/17 02:25:02;;;;;;;;;;;22.20;52.20;;;;;;5078795;28;19908;-62
2024/03/17 02:27:27;;;;;;;;;;;22.20;52.20;;;;;;5080077;28;19964;-63
2024/03/17 02:29:53;;;;;;;;;;;22.20;52.20;;;;;;5078980;28;20713;-62
2024/03/17 02:32:22;;;;;;;;;;;22.20;52.20;;;;;;5080430;28;19904;-63
2024/03/17 02:34:47;;;;;;;;;;;22.20;52.20;;;;;;5080107;28;19911;-63
2024/03/17 02:37:13;;;;;;;;;;;22.20;52.70;;;;;;5079576;28;20368;-63
2024/03/17 02:39:38;;;;;;;;;;;22.20;52.20;;;;;;5081561;28;20360;-63
2024/03/17 02:42:05;;;;;;;;;;;22.10;52.20;;;;;;5077444;28;20218;-63
2024/03/17 02:44:31;;;;;;;;;;;22.10;52.20;;;;;;5094691;28;19918;-63
2024/03/17 02:46:57;;;;;;;;;;;22.10;52.20;;;;;;5078389;28;19907;-63
2024/03/17 02:49:23;;;;;;;;;;;22.10;52.20;;;;;;5080706;28;19908;-63
2024/03/17 02:51:49;;;;;;;;;;;22.10;52.20;;;;;;5076581;28;20236;-63
2024/03/17 02:54:14;;;;;;;;;;;22.10;52.20;;;;;;5081089;28;19969;-63
2024/03/17 02:56:41;;;;;;;;;;;22.10;52.20;;;;;;5078842;28;19966;-63
2024/03/17 02:59:07;;;;;;;;;;;22.10;52.20;;;;;;5076709;28;19908;-63
2024/03/17 03:01:32;;;;;;;;;;;22.10;52.20;;;;;;5080264;28;19922;-63
2024/03/17 03:03:58;;;;;;;;;;;22.10;52.20;;;;;;5079589;28;20360;-63
2024/03/17 03:06:25;;;;;;;;;;;22.10;52.20;;;;;;5079983;28;19904;-63
2024/03/17 03:08:50;;;;;;;;;;;22.10;52.70;;;;;;5079176;28;19950;-63
2024/03/17 03:11:16;;;;;;;;;;;22.10;52.20;;;;;;5079489;28;20361;-63
2024/03/17 03:13:42;;;;;;;;;;;22.00;52.10;;;;;;5076251;28;20382;-63
2024/03/17 03:16:09;;;;;;;;;;;22.00;52.10;;;;;;5077804;28;20292;-63
2024/03/17 03:18:35;;;;;;;;;;;22.00;52.10;;;;;;5079573;28;20036;-63
2024/03/17 03:21:01;;;;;;;;;;;22.00;52.10;;;;;;5079952;28;20460;-62
2024/03/17 03:23:29;;;;;;;;;;;22.00;52.10;;;;;;5061115;28;19966;-63
2024/03/17 03:25:58;;;;;;;;;;;22.00;52.10;;;;;;5077790;28;19912;-62
2024/03/17 03:28:24;;;;;;;;;;;22.00;52.10;;;;;;5077222;28;19915;-63
2024/03/17 03:30:51;;;;;;;;;;;22.00;52.10;;;;;;5079701;28;20339;-63
2024/03/17 03:33:17;;;;;;;;;;;21.90;52.10;;;;;;5077851;28;19908;-63
2024/03/17 03:35:43;;;;;;;;;;;22.00;52.10;;;;;;5078649;28;19905;-63
2024/03/17 03:38:09;;;;;;;;;;;22.00;52.10;;;;;;5077419;28;19911;-62
2024/03/17 03:40:34;;;;;;;;;;;22.00;52.10;;;;;;5077776;28;19908;-64
2024/03/17 03:43:00;;;;;;;;;;;22.00;52.20;;;;;;5076501;28;19912;-63
2024/03/17 03:45:25;;;;;;;;;;;22.00;52.20;;;;;;5078855;28;19912;-62
2024/03/17 03:47:51;;;;;;;;;;;22.00;52.20;;;;;;5095396;28;19912;-63
2024/03/17 03:50:19;;;;;;;;;;;21.90;52.10;;;;;;5075911;28;20489;-63
2024/03/17 03:52:45;;;;;;;;;;;22.00;52.20;;;;;;5078043;28;19908;-63
2024/03/17 03:55:14;;;;;;;;;;;21.90;52.20;;;;;;5077292;28;19908;-62
2024/03/17 03:57:47;;;;;;;;;;;21.90;52.20;;;;;;5076582;28;19911;-65
2024/03/17 04:00:15;;;;;;;;;;;21.90;52.20;;;;;;5078587;28;19908;-65
2024/03/17 04:02:42;;;;;;;;;;;21.90;52.10;;;;;;5080254;28;19959;-65
2024/03/17 04:05:07;;;;;;;;;;;21.90;52.20;;;;;;5081537;28;19908;-65
2024/03/17 04:07:33;;;;;;;;;;;21.90;52.20;;;;;;5083002;28;19904;-65
2024/03/17 04:09:59;;;;;;;;;;;21.90;52.20;;;;;;5082656;28;20345;-65
2024/03/17 04:12:25;;;;;;;;;;;21.90;52.20;;;;;;5081180;28;20034;-64
2024/03/17 04:14:53;;;;;;;;;;;21.90;52.30;;;;;;5083285;28;20219;-65
2024/03/17 04:17:21;;;;;;;;;;;21.80;52.20;;;;;;5082436;28;20321;-65
2024/03/17 04:19:47;;;;;;;;;;;21.80;52.20;;;;;;5083639;28;20367;-65
2024/03/17 04:22:13;;;;;;;;;;;21.90;52.30;;;;;;5083830;28;20352;-65
2024/03/17 04:24:38;;;;;;;;;;;21.80;52.20;;;;;;5082270;28;19923;-65
2024/03/17 04:27:04;;;;;;;;;;;21.80;52.20;;;;;;5083972;28;19924;-65
2024/03/17 04:29:29;;;;;;;;;;;21.80;52.20;;;;;;5080088;28;20593;-64
2024/03/17 04:31:55;;;;;;;;;;;21.80;52.20;;;;;;5082601;28;19912;-65
2024/03/17 04:34:20;;;;;;;;;;;21.80;52.20;;;;;;5065901;28;19904;-65
2024/03/17 04:36:46;;;;;;;;;;;21.80;52.20;;;;;;5083236;28;20046;-65
2024/03/17 04:39:12;;;;;;;;;;;21.80;52.20;;;;;;5082255;28;19911;-65
2024/03/17 04:41:40;;;;;;;;;;;21.80;52.20;;;;;;5080120;28;19930;-65
2024/03/17 04:44:06;;;;;;;;;;;21.80;52.20;;;;;;5080286;28;19915;-65
2024/03/17 04:46:32;;;;;;;;;;;21.80;52.30;;;;;;5072053;28;19908;-65
2024/03/17 04:48:57;;;;;;;;;;;21.80;52.30;;;;;;5082665;28;19912;-65
2024/03/17 04:51:23;;;;;;;;;;;21.80;52.30;;;;;;5081775;28;20036;-64
2024/03/17 04:53:48;;;;;;;;;;;21.80;52.20;;;;;;5081457;28;20393;-65
2024/03/17 04:56:14;;;;;;;;;;;21.80;52.50;;;;;;5084231;28;19914;-65
2024/03/17 04:58:39;;;;;;;;;;;21.80;52.30;;;;;;5080350;28;19994;-65
2024/03/17 05:01:06;;;;;;;;;;;21.80;52.30;;;;;;5081575;28;19916;-65
2024/03/17 05:03:32;;;;;;;;;;;21.80;52.30;;;;;;5082727;28;20314;-65
2024/03/17 05:06:00;;;;;;;;;;;21.80;52.30;;;;;;5082662;28;19904;-65
2024/03/17 05:08:26;;;;;;;;;;;21.80;52.30;;;;;;5079575;28;19913;-65
2024/03/17 05:10:57;;;;;;;;;;;21.70;52.30;;;;;;5081065;28;19908;-65
2024/03/17 05:13:23;;;;;;;;;;;21.70;52.30;;;;;;5060733;28;20005;-65
2024/03/17 05:15:49;;;;;;;;;;;21.80;52.30;;;;;;5082668;28;20283;-65
2024/03/17 05:18:14;;;;;;;;;;;21.70;52.30;;;;;;5082104;28;20001;-64
2024/03/17 05:20:40;;;;;;;;;;;21.70;52.30;;;;;;5070720;28;19998;-65
2024/03/17 05:23:05;;;;;;;;;;;21.70;52.30;;;;;;5082617;28;19951;-64
2024/03/17 05:25:36;;;;;;;;;;;21.70;52.30;;;;;;5081232;28;19909;-64
2024/03/17 05:28:02;;;;;;;;;;;21.70;52.30;;;;;;5078319;28;20375;-64
2024/03/17 05:30:27;;;;;;;;;;;21.70;52.30;;;;;;5080867;28;19908;-63
2024/03/17 05:32:53;;;;;;;;;;;21.70;52.30;;;;;;5079081;28;19904;-63
2024/03/17 05:35:18;;;;;;;;;;;21.70;52.30;;;;;;5081884;28;20347;-63
2024/03/17 05:37:44;;;;;;;;;;;21.70;52.30;;;;;;5079869;28;19915;-63
2024/03/17 05:40:12;;;;;;;;;;;21.70;52.30;;;;;;5079810;28;20422;-63
2024/03/17 05:42:37;;;;;;;;;;;21.70;52.40;;;;;;5080208;28;20291;-63
2024/03/17 05:45:03;;;;;;;;;;;21.70;52.40;;;;;;5081695;28;19908;-63
2024/03/17 05:47:29;;;;;;;;;;;21.70;52.40;;;;;;5078681;28;19903;-63
2024/03/17 05:49:55;;;;;;;;;;;21.70;52.40;;;;;;5081426;28;19915;-63
2024/03/17 05:52:21;;;;;;;;;;;21.70;52.40;;;;;;5081333;28;19942;-63
2024/03/17 05:54:47;;;;;;;;;;;21.70;52.40;;;;;;5080344;28;19952;-64
2024/03/17 05:57:13;;;;;;;;;;;21.70;52.40;;;;;;5079521;28;19905;-63
2024/03/17 05:59:39;;;;;;;;;;;21.60;52.30;;;;;;5078365;28;19949;-63
2024/03/17 06:02:05;;;;;;;;;;;21.60;52.30;;;;;;5079827;28;19999;-63
2024/03/17 06:04:30;;;;;;;;;;;21.60;52.30;;;;;;5080506;28;19915;-63
2024/03/17 06:06:56;;;;;;;;;;;21.60;52.30;;;;;;5076650;28;20431;-63
2024/03/17 06:09:22;;;;;;;;;;;21.60;52.30;;;;;;5081142;28;19911;-62
2024/03/17 06:11:48;;;;;;;;;;;21.60;52.30;;;;;;5081177;28;19944;-62
2024/03/17 06:14:13;;;;;;;;;;;21.60;52.40;;;;;;5079274;28;20050;-63
2024/03/17 06:16:39;;;;;;;;;;;21.60;52.40;;;;;;5078525;28;20374;-63
2024/03/17 06:19:05;;;;;;;;;;;21.60;52.40;;;;;;5078970;28;19916;-63
2024/03/17 06:21:31;;;;;;;;;;;21.60;52.40;;;;;;5078998;28;20356;-63
2024/03/17 06:23:57;;;;;;;;;;;21.60;52.40;;;;;;5077661;28;19908;-63
2024/03/17 06:26:22;;;;;;;;;;;21.60;52.40;;;;;;5076218;28;20505;-62
2024/03/17 06:28:48;;;;;;;;;;;21.60;52.40;;;;;;5078128;28;19998;-63
2024/03/17 06:31:14;;;;;;;;;;;21.60;52.40;;;;;;5079414;28;19961;-63
2024/03/17 06:33:39;;;;;;;;;;;21.60;52.40;;;;;;5082069;28;19908;-63
2024/03/17 06:36:05;;;;;;;;;;;21.60;52.40;;;;;;5061526;28;19908;-64
2024/03/17 06:38:34;;;;;;;;;;;21.60;52.40;;;;;;5077992;28;19909;-63
2024/03/17 06:40:59;;;;;;;;;;;21.60;52.40;;;;;;5080562;28;19916;-63
2024/03/17 06:43:25;;;;;;;;;;;21.60;52.40;;;;;;5078814;28;19912;-63
2024/03/17 06:45:56;;;;;;;;;;;21.60;52.40;;;;;;5076587;28;19915;-62
2024/03/17 06:48:22;;;;;;;;;;;21.60;52.40;;;;;;5079108;28;19908;-62
2024/03/17 06:50:48;;;;;;;;;;;21.50;52.30;;;;;;5079188;28;19926;-63
2024/03/17 06:53:13;;;;;;;;;;;21.60;52.40;;;;;;5079729;28;19924;-63
2024/03/17 06:55:39;;;;;;;;;;;21.60;52.40;;;;;;5078853;28;19947;-63
2024/03/17 06:58:04;;;;;;;;;;;21.60;52.40;;;;;;5078644;28;19908;-63
2024/03/17 07:00:30;;;;;;;;;;;21.60;52.40;;;;;;5078606;28;19908;-62
2024/03/17 07:02:55;;;;;;;;;;;21.50;52.40;;;;;;5079927;28;19912;-63
2024/03/17 07:05:21;;;;;;;;;;;21.50;52.40;;;;;;5077964;28;19934;-62
2024/03/17 07:07:46;;;;;;;;;;;21.60;52.40;;;;;;5078831;28;19912;-61
2024/03/17 07:10:12;;;;;;;;;;;21.50;52.40;;;;;;5080302;28;19919;-63
2024/03/17 07:12:38;;;;;;;;;;;21.50;52.40;;;;;;5079516;28;19904;-62
2024/03/17 07:15:04;;;;;;;;;;;21.50;52.40;;;;;;5077956;28;20360;-62
2024/03/17 07:17:30;;;;;;;;;;;21.50;52.40;;;;;;5079838;28;19908;-63
2024/03/17 07:19:55;;;;;;;;;;;21.50;52.40;;;;;;5077142;28;19963;-62
2024/03/17 07:22:22;;;;;;;;;;;21.50;52.40;;;;;;5061032;28;19916;-62
2024/03/17 07:24:50;;;;;;;;;;;21.50;52.50;;;;;;5078272;28;19908;-61
2024/03/17 07:27:15;;;;;;;;;;;21.50;52.50;;;;;;5078124;28;19915;-63
2024/03/17 07:29:41;;;;;;;;;;;21.50;53.00;;;;;;5076353;28;20427;-63
2024/03/17 07:32:06;;;;;;;;;;;21.50;52.50;;;;;;5079462;28;19908;-62
2024/03/17 07:34:32;;;;;;;;;;;21.50;52.60;;;;;;5078863;28;19920;-62
2024/03/17 07:37:00;;;;;;;;;;;21.50;52.60;;;;;;5077545;28;19904;-62
2024/03/17 07:39:32;;;;;;;;;;;21.50;52.60;;;;;;5098538;28;19912;-63
2024/03/17 07:42:01;;;;;;;;;;;21.50;52.60;;;;;;5081594;28;20332;-62
2024/03/17 07:44:28;;;;;;;;;;;21.50;52.60;;;;;;5081413;28;19908;-62
2024/03/17 07:46:54;;;;;;;;;;;21.50;52.60;;;;;;5081390;28;20340;-65
2024/03/17 07:49:20;;;;;;;;;;;21.50;52.60;;;;;;5077837;28;19904;-64
2024/03/17 07:51:46;;;;;;;;;;;21.40;52.60;;;;;;5072732;28;20014;-64
2024/03/17 07:54:13;;;;;;;;;;;21.50;52.70;;;;;;5080951;28;20386;-64
2024/03/17 07:56:39;;;;;;;;;;;21.50;52.70;;;;;;5067369;28;19904;-64
2024/03/17 07:59:11;;;;;;;;;;;21.50;52.70;;;;;;5081578;28;19909;-64
2024/03/17 08:01:37;;;;;;;;;;;21.50;52.80;;;;;;5098757;28;19927;-64
2024/03/17 08:04:03;;;;;;;;;;;21.50;52.80;;;;;;5078860;28;19912;-65
2024/03/17 08:06:29;;;;;;;;;;;21.50;52.80;;;;;;5080526;28;19951;-65
2024/03/17 08:08:54;;;;;;;;;;;21.50;52.80;;;;;;5083592;28;20434;-64
2024/03/17 08:11:20;;;;;;;;;;;21.50;52.80;;;;;;5083812;28;19947;-64
2024/03/17 08:13:45;;;;;;;;;;;21.50;52.80;;;;;;5083429;28;19907;-64
2024/03/17 08:16:12;;;;;;;;;;;21.40;52.80;;;;;;5082260;28;20356;-64
2024/03/17 08:18:37;;;;;;;;;;;21.40;52.80;;;;;;5083652;28;20711;-65
2024/03/17 08:21:06;;;;;;;;;;;21.40;52.90;;;;;;5097998;28;19995;-65
2024/03/17 08:23:32;;;;;;;;;;;21.50;53.00;;;;;;5082249;28;20327;-65
2024/03/17 08:25:58;;;;;;;;;;;21.40;53.00;;;;;;5082682;28;19911;-64
2024/03/17 08:28:24;;;;;;;;;;;21.40;53.00;;;;;;5082934;28;19962;-64
2024/03/17 08:31:03;;;;;;;;;;;21.40;53.00;;;;;;5080493;28;19908;-65
2024/03/17 08:33:29;;;;;;;;;;;21.40;53.10;;;;;;5081593;28;20356;-65
2024/03/17 08:35:57;;;;;;;;;;;21.40;53.10;;;;;;5082622;28;19943;-62
2024/03/17 08:38:23;;;;;;;;;;;21.40;53.20;;;;;;5079634;28;19904;-62
2024/03/17 08:40:52;;;;;;;;;;;21.40;53.20;;;;;;5081507;28;20270;-62
2024/03/17 08:43:18;;;;;;;;;;;21.40;53.30;;;;;;5081080;28;19950;-62
2024/03/17 08:45:44;;;;;;;;;;;21.40;53.00;;;;;;5078776;28;19912;-62
2024/03/17 08:48:13;;;;;;;;;;;21.40;53.00;;;;;;5081922;28;19919;-62
2024/03/17 08:50:40;;;;;;;;;;;21.40;52.90;;;;;;5081704;28;19904;-62
2024/03/17 08:53:06;;;;;;;;;;;21.40;52.90;;;;;;5080416;28;19912;-62
2024/03/17 08:55:32;;;;;;;;;;;21.40;52.80;;;;;;5062724;28;19954;-63
2024/03/17 08:57:57;;;;;;;;;;;21.40;53.20;;;;;;5080394;28;19920;-65
2024/03/17 09:00:23;;;;;;;;;;;21.40;52.70;;;;;;5078345;28;19995;-65
2024/03/17 09:02:48;;;;;;;;;;;21.40;52.50;;;;;;5081794;28;20367;-65
2024/03/17 09:05:14;;;;;;;;;;;21.40;52.60;;;;;;5080786;28;20496;-65
2024/03/17 09:07:39;;;;;;;;;;;21.40;52.40;;;;;;5079401;28;19981;-65
2024/03/17 09:10:05;;;;;;;;;;;21.40;52.40;;;;;;5082336;28;19912;-65
2024/03/17 09:12:31;;;;;;;;;;;21.40;52.50;;;;;;5062982;28;20332;-65
2024/03/17 09:14:57;;;;;;;;;;;21.40;52.50;;;;;;5079030;28;19908;-65
2024/03/17 09:17:23;;;;;;;;;;;21.40;52.50;;;;;;5076423;28;19920;-65
2024/03/17 09:19:48;;;;;;;;;;;21.40;52.50;;;;;;5079765;28;19916;-65
2024/03/17 09:22:13;;;;;;;;;;;21.40;52.60;;;;;;5081156;28;19960;-65
2024/03/17 09:24:40;;;;;;;;;;;21.40;52.50;;;;;;5077607;28;19999;-66
2024/03/17 09:27:06;;;;;;;;;;;21.40;52.50;;;;;;5080052;28;19916;-65
2024/03/17 09:29:31;;;;;;;;;;;21.40;52.40;;;;;;5080499;28;19919;-65
2024/03/17 09:31:57;;;;;;;;;;;21.40;52.30;;;;;;5080093;28;20003;-65
2024/03/17 09:34:22;;;;;;;;;;;21.40;52.30;;;;;;5096068;28;19939;-65
2024/03/17 09:36:48;;;;;;;;;;;21.40;52.30;;;;;;5080734;28;20371;-65
2024/03/17 09:39:14;;;;;;;;;;;21.40;52.20;;;;;;5096815;28;19943;-65
2024/03/17 09:41:40;;;;;;;;;;;21.40;52.10;;;;;;5080208;28;19912;-65
2024/03/17 09:44:06;;;;;;;;;;;21.40;52.10;;;;;;5081862;28;20422;-65
2024/03/17 09:46:33;;;;;;;;;;;21.40;52.10;;;;;;5061161;28;19912;-62
2024/03/17 09:48:59;;;;;;;;;;;21.40;52.10;;;;;;5080641;28;19908;-62
2024/03/17 09:51:25;;;;;;;;;;;21.40;52.20;;;;;;5081056;28;20292;-62
2024/03/17 09:53:51;;;;;;;;;;;21.40;52.20;;;;;;5080666;28;20276;-62
2024/03/17 09:56:20;;;;;;;;;;;21.50;52.30;;;;;;5078561;28;19908;-63
2024/03/17 09:58:49;;;;;;;;;;;21.40;52.20;;;;;;5078609;28;19944;-62
2024/03/17 10:01:16;;;;;;;;;;;21.50;52.30;;;;;;5077908;28;20057;-63
2024/03/17 10:03:45;;;;;;;;;;;21.50;52.20;;;;;;5061113;28;20301;-62
2024/03/17 10:06:14;;;;;;;;;;;21.50;52.30;;;;;;5080812;28;19908;-63
2024/03/17 10:08:40;;;;;;;;;;;21.50;52.20;;;;;;5078905;28;19913;-65
2024/03/17 10:11:06;;;;;;;;;;;21.50;52.30;;;;;;5077798;28;19962;-65
2024/03/17 10:13:31;;;;;;;;;;;21.50;52.30;;;;;;5079536;28;19904;-65
2024/03/17 10:15:57;;;;;;;;;;;21.50;52.30;;;;;;5078637;28;20858;-65
2024/03/17 10:18:25;;;;;;;;;;;21.50;52.30;;;;;;5080760;28;19950;-65
2024/03/17 10:20:58;;;;;;;;;;;21.50;52.40;;;;;;5081844;28;19916;-65
2024/03/17 10:23:23;;;;;;;;;;;21.50;52.40;;;;;;5081391;28;20401;-66
2024/03/17 10:25:49;;;;;;;;;;;21.60;52.50;;;;;;5080830;28;19940;-65
2024/03/17 10:28:16;;;;;;;;;;;21.60;52.50;;;;;;5080156;28;19942;-65
2024/03/17 10:30:42;;;;;;;;;;;21.60;52.60;;;;;;5058823;28;19908;-65
2024/03/17 10:33:22;;;;;;;;;;;21.60;52.70;;;;;;5061470;28;19907;-65
2024/03/17 10:35:48;;;;;;;;;;;21.60;52.70;;;;;;5078988;28;19943;-65
2024/03/17 10:38:14;;;;;;;;;;;21.60;52.70;;;;;;5063641;28;20035;-65
2024/03/17 10:40:40;;;;;;;;;;;21.60;52.70;;;;;;5063227;28;20006;-65
2024/03/17 10:43:06;;;;;;;;;;;21.60;52.70;;;;;;5078953;28;19919;-65
2024/03/17 10:45:37;;;;;;;;;;;21.60;52.70;;;;;;5076900;28;19908;-65
2024/03/17 10:48:03;;;;;;;;;;;21.70;52.80;;;;;;5081478;28;19904;-62
2024/03/17 10:50:35;;;;;;;;;;;21.70;52.80;;;;;;5079809;28;19904;-62
2024/03/17 10:53:08;;;;;;;;;;;21.70;52.80;;;;;;5077431;28;19907;-63
2024/03/17 10:55:43;;;;;;;;;;;21.70;52.80;;;;;;5079121;28;19908;-63
2024/03/17 10:58:17;;;;;;;;;;;21.70;52.80;;;;;;5080105;28;19971;-63
2024/03/17 11:00:43;;;;;;;;;;;21.70;52.80;;;;;;5076468;28;19962;-62
2024/03/17 11:03:11;;;;;;;;;;;21.70;53.30;;;;;;5081221;28;19916;-63
2024/03/17 11:05:37;;;;;;;;;;;21.70;52.80;;;;;;5077913;28;19911;-64
2024/03/17 11:08:03;;;;;;;;;;;21.70;52.80;;;;;;5094166;28;19912;-62
2024/03/17 11:10:29;;;;;;;;;;;21.70;52.80;;;;;;5078135;28;19904;-63
2024/03/17 11:12:58;;;;;;;;;;;21.70;52.80;;;;;;5077936;28;19938;-62
2024/03/17 11:15:26;;;;;;;;;;;21.70;52.90;;;;;;5079308;28;19952;-62
2024/03/17 11:17:53;;;;;;;;;;;21.70;52.80;;;;;;5075857;28;19905;-63
2024/03/17 11:20:22;;;;;;;;;;;21.80;52.90;;;;;;5078310;28;19916;-63
2024/03/17 11:22:56;;;;;;;;;;;21.80;52.90;;;;;;5078966;28;20347;-62
2024/03/17 11:25:30;;;;;;;;;;;21.80;52.90;;;;;;5080333;28;19944;-63
2024/03/17 11:27:56;;;;;;;;;;;21.80;52.90;;;;;;5076741;28;20102;-63
2024/03/17 11:30:40;;;;;;;;;;;21.80;52.90;;;;;;5077399;28;20086;-63
2024/03/17 11:33:24;;;;;;;;;;;21.80;52.90;;;;;;5075456;28;20389;-63
2024/03/17 11:35:50;;;;;;;;;;;21.80;52.90;;;;;;5079322;28;20047;-63
2024/03/17 11:38:34;;;;;;;;;;;21.80;52.90;;;;;;5077153;28;19912;-63
2024/03/17 11:41:19;;;;;;;;;;;21.80;52.90;;;;;;5078557;28;19912;-63
2024/03/17 11:43:45;;;;;;;;;;;21.80;52.90;;;;;;5079121;28;19943;-63
2024/03/17 11:46:10;;;;;;;;;;;21.80;52.90;;;;;;5077869;28;19962;-62
2024/03/17 11:48:37;;;;;;;;;;;21.90;53.00;;;;;;5078474;28;20021;-62
2024/03/17 11:51:04;;;;;;;;;;;21.90;53.00;;;;;;5078001;28;20284;-63
2024/03/17 11:53:29;;;;;;;;;;;21.90;53.50;;;;;;5061073;28;19904;-63
2024/03/17 11:55:55;;;;;;;;;;;21.90;53.00;;;;;;5078148;28;20407;-62
2024/03/17 11:58:22;;;;;;;;;;;21.90;53.00;;;;;;5078203;28;19919;-62
2024/03/17 12:00:56;;;;;;;;;;;21.90;53.00;;;;;;5079375;28;19905;-63
2024/03/17 12:03:21;;;;;;;;;;;21.90;52.90;;;;;;5080002;28;20326;-62
2024/03/17 12:05:47;;;;;;;;;;;21.90;52.90;;;;;;5078472;28;19923;-62
2024/03/17 12:08:20;;;;;;;;;;;21.90;52.90;;;;;;5079164;28;19915;-63
2024/03/17 12:10:48;;;;;;;;;;;21.90;52.90;;;;;;5079803;28;19981;-62
2024/03/17 12:13:14;;;;;;;;;;;21.90;53.00;;;;;;5077159;28;19904;-63
2024/03/17 12:15:40;;;;;;;;;;;21.90;53.00;;;;;;5075871;28;19931;-63
2024/03/17 12:18:19;;;;;;;;;;;21.90;53.00;;;;;;5075397;28;19952;-62
2024/03/17 12:20:47;;;;;;;;;;;21.90;53.10;;;;;;5079605;28;20382;-62
2024/03/17 12:23:16;;;;;;;;;;;21.90;53.10;;;;;;5079669;28;20400;-62
2024/03/17 12:25:46;;;;;;;;;;;21.90;53.20;;;;;;5081193;28;20329;-63
2024/03/17 12:28:16;;;;;;;;;;;21.90;53.30;;;;;;5082362;28;19911;-63
2024/03/17 12:30:42;;;;;;;;;;;21.90;53.30;;;;;;5081685;28;20004;-62
2024/03/17 12:33:10;;;;;;;;;;;21.90;53.30;;;;;;5080001;28;20007;-63
2024/03/17 12:35:36;;;;;;;;;;;21.90;53.30;;;;;;5082330;28;20337;-62
2024/03/17 12:38:01;;;;;;;;;;;21.90;53.30;;;;;;5082550;28;19919;-62
2024/03/17 12:40:29;;;;;;;;;;;21.90;53.30;;;;;;5080959;28;19908;-63
2024/03/17 12:42:54;;;;;;;;;;;21.90;53.30;;;;;;5080429;28;19978;-63
2024/03/17 12:45:23;;;;;;;;;;;21.90;53.20;;;;;;5082851;28;19936;-62
2024/03/17 12:47:50;;;;;;;;;;;21.90;53.20;;;;;;5078612;28;20272;-62
2024/03/17 12:50:15;;;;;;;;;;;22.00;53.30;;;;;;5084200;28;19908;-63
2024/03/17 12:52:51;;;;;;;;;;;22.00;53.20;;;;;;5082959;28;19912;-62
2024/03/17 13:01:06;;;;;;;;;;;22.00;53.20;;;;;;5081748;28;19962;-62
2024/03/17 13:03:34;;;;;;;;;;;22.00;53.10;;;;;;5078195;28;20387;-63
2024/03/17 13:05:59;;;;;;;;;;;22.00;53.10;;;;;;5082916;28;19998;-63
2024/03/17 13:08:25;;;;;;;;;;;22.00;53.00;;;;;;5083174;28;20480;-62
2024/03/17 13:10:51;;;;;;;;;;;22.10;53.10;;;;;;5080787;28;19908;-63
2024/03/17 13:13:17;;;;;;;;;;;22.10;53.00;;;;;;5063872;28;19904;-62
2024/03/17 13:15:43;;;;;;;;;;;22.10;52.90;;;;;;5081012;28;19908;-62
2024/03/17 13:18:08;;;;;;;;;;;22.10;52.90;;;;;;5081767;28;19980;-63
2024/03/17 13:20:34;;;;;;;;;;;22.10;52.80;;;;;;5079064;28;19935;-63
2024/03/17 13:23:00;;;;;;;;;;;22.10;52.80;;;;;;5082561;28;20303;-63
2024/03/17 13:25:29;;;;;;;;;;;22.10;52.80;;;;;;5081387;28;20411;-63
2024/03/17 13:27:55;;;;;;;;;;;22.10;52.70;;;;;;5080358;28;19914;-63
2024/03/17 13:30:23;;;;;;;;;;;22.10;52.60;;;;;;5079434;28;19908;-63
2024/03/17 13:32:52;;;;;;;;;;;22.10;52.50;;;;;;5078455;28;20292;-63
2024/03/17 13:35:18;;;;;;;;;;;22.10;52.40;;;;;;5063270;28;19904;-63
2024/03/17 13:37:47;;;;;;;;;;;22.10;52.40;;;;;;5081359;28;19908;-62
2024/03/17 13:40:16;;;;;;;;;;;22.10;52.30;;;;;;5080479;28;19912;-63
2024/03/17 13:42:43;;;;;;;;;;;22.10;52.30;;;;;;5080357;28;20309;-62
2024/03/17 13:45:10;;;;;;;;;;;22.10;52.20;;;;;;5080853;28;19911;-62
2024/03/17 13:47:35;;;;;;;;;;;22.20;52.30;;;;;;5079143;28;19908;-63
2024/03/17 13:50:06;;;;;;;;;;;22.20;52.30;;;;;;5080763;28;19911;-62
2024/03/17 13:52:34;;;;;;;;;;;22.20;52.20;;;;;;5083828;28;20022;-62
2024/03/17 13:55:00;;;;;;;;;;;22.20;52.30;;;;;;5081946;28;19995;-63
2024/03/17 13:57:25;;;;;;;;;;;22.20;52.20;;;;;;5079757;28;20435;-63
2024/03/17 13:59:52;;;;;;;;;;;22.20;52.20;;;;;;5080631;28;19908;-62
2024/03/17 14:02:17;;;;;;;;;;;22.20;52.20;;;;;;5079416;28;19919;-62
2024/03/17 14:04:43;;;;;;;;;;;22.20;52.70;;;;;;5079451;28;19983;-62
2024/03/17 14:07:08;;;;;;;;;;;22.20;52.20;;;;;;5082016;28;19912;-62
2024/03/17 14:09:34;;;;;;;;;;;22.20;52.20;;;;;;5080141;28;19904;-62
2024/03/17 14:11:59;;;;;;;;;;;22.20;52.20;;;;;;5078860;28;19915;-62
2024/03/17 14:14:25;;;;;;;;;;;22.20;52.20;;;;;;5078618;28;20383;-63
2024/03/17 14:16:50;;;;;;;;;;;22.20;52.20;;;;;;5078033;28;19915;-63
2024/03/17 14:19:16;;;;;;;;;;;22.20;52.20;;;;;;5080476;28;20374;-62